createdAt,value
2022-11-29T00:01:13.697Z,12.82
2022-11-29T00:03:40.461Z,13.35
2022-11-29T00:06:09.639Z,15.02
2022-11-29T00:08:36.967Z,10.32
2022-11-29T00:11:05.683Z,11.38
2022-11-29T00:13:32.591Z,9.00
2022-11-29T00:16:07.266Z,8.27
2022-11-29T00:18:34.117Z,12.00
2022-11-29T00:21:04.753Z,13.38
2022-11-29T00:23:31.434Z,8.35
2022-11-29T00:26:07.392Z,11.40
2022-11-29T00:28:35.322Z,9.30
2022-11-29T00:31:20.043Z,16.73
2022-11-29T00:33:47.308Z,12.25
2022-11-29T00:36:14.252Z,15.00
2022-11-29T00:38:41.458Z,13.63
2022-11-29T00:41:09.064Z,18.65
2022-11-29T00:43:36.117Z,14.15
2022-11-29T00:46:03.461Z,17.08
2022-11-29T00:50:57.064Z,15.43
2022-11-29T00:53:23.859Z,22.42
2022-11-29T00:55:53.893Z,24.52
2022-11-29T00:58:22.009Z,19.58
2022-11-29T01:00:49.263Z,14.25
2022-11-29T01:03:17.049Z,14.70
2022-11-29T01:05:44.409Z,14.02
2022-11-29T01:10:38.225Z,12.40
2022-11-29T01:13:05.292Z,14.90
2022-11-29T01:15:32.032Z,10.98
2022-11-29T01:17:59.146Z,13.40
2022-11-29T01:20:25.847Z,12.48
2022-11-29T01:22:52.632Z,6.85
2022-11-29T01:25:19.689Z,12.30
2022-11-29T01:27:47.355Z,11.38
2022-11-29T01:30:14.963Z,8.27
2022-11-29T01:32:41.830Z,11.85
2022-11-29T01:35:08.945Z,11.73
2022-11-29T01:37:35.702Z,10.63
2022-11-29T01:40:02.798Z,14.43
2022-11-29T01:42:29.515Z,13.32
2022-11-29T01:45:07.990Z,11.50
2022-11-29T01:47:42.303Z,13.60
2022-11-29T01:50:09.857Z,12.32
2022-11-29T01:52:36.744Z,11.68
2022-11-29T01:55:07.328Z,11.13
2022-11-29T01:57:36.670Z,12.02
2022-11-29T02:00:12.799Z,13.23
2022-11-29T02:03:11.761Z,10.05
2022-11-29T02:05:41.911Z,12.07
2022-11-29T02:08:10.880Z,11.15
2022-11-29T02:10:55.601Z,10.48
2022-11-29T02:13:47.728Z,15.10
2022-11-29T02:16:14.430Z,14.60
2022-11-29T02:19:03.887Z,14.90
2022-11-29T02:21:51.891Z,15.80
2022-11-29T02:24:55.379Z,19.73
2022-11-29T02:27:47.203Z,12.63
2022-11-29T02:30:31.316Z,18.33
2022-11-29T02:33:15.760Z,16.48
2022-11-29T02:36:01.518Z,16.70
2022-11-29T02:38:47.088Z,18.60
2022-11-29T02:41:31.179Z,21.52
2022-11-29T02:44:29.832Z,23.05
2022-11-29T02:47:05.339Z,19.85
2022-11-29T02:49:41.325Z,19.75
2022-11-29T02:52:16.983Z,18.42
2022-11-29T02:55:01.056Z,17.92
2022-11-29T02:58:08.996Z,21.45
2022-11-29T03:00:41.264Z,16.80
2022-11-29T03:03:31.679Z,17.98
2022-11-29T03:06:35.878Z,18.55
2022-11-29T03:09:20.696Z,20.95
2022-11-29T03:11:56.831Z,27.08
2022-11-29T03:14:31.014Z,20.92
2022-11-29T03:17:17.585Z,17.05
2022-11-29T03:20:08.255Z,23.58
2022-11-29T03:23:02.895Z,23.02
2022-11-29T03:25:45.985Z,19.98
2022-11-29T03:28:27.806Z,21.00
2022-11-29T03:31:29.533Z,17.90
2022-11-29T03:34:25.337Z,21.08
2022-11-29T03:37:04.988Z,19.85
2022-11-29T03:39:51.826Z,23.08
2022-11-29T03:42:25.875Z,19.17
2022-11-29T03:45:07.836Z,21.75
2022-11-29T03:47:46.895Z,20.85
2022-11-29T03:50:19.121Z,20.17
2022-11-29T03:53:14.155Z,22.02
2022-11-29T03:56:01.784Z,19.17
2022-11-29T03:58:47.232Z,21.90
2022-11-29T04:01:25.637Z,21.70
2022-11-29T04:04:10.397Z,20.42
2022-11-29T04:07:11.097Z,22.65
2022-11-29T04:10:15.374Z,22.25
2022-11-29T04:13:03.626Z,21.27
2022-11-29T04:16:03.073Z,17.90
2022-11-29T04:19:11.170Z,15.63
2022-11-29T04:22:14.737Z,22.60
2022-11-29T04:24:50.485Z,21.13
2022-11-29T04:27:38.914Z,27.30
2022-11-29T04:30:08.890Z,14.95
2022-11-29T04:36:28.442Z,20.83
2022-11-29T04:39:12.057Z,21.80
2022-11-29T04:41:57.429Z,18.85
2022-11-29T04:44:47.879Z,20.73
2022-11-29T04:47:55.377Z,21.50
2022-11-29T04:50:48.500Z,21.30
2022-11-29T04:53:39.167Z,19.15
2022-11-29T04:56:28.255Z,19.23
2022-11-29T04:59:01.459Z,20.10
2022-11-29T05:01:50.731Z,17.90
2022-11-29T05:04:52.037Z,22.75
2022-11-29T05:08:12.756Z,20.67
2022-11-29T05:10:44.121Z,26.98
2022-11-29T05:13:20.636Z,22.67
2022-11-29T05:16:21.118Z,23.92
2022-11-29T05:19:21.861Z,35.42
2022-11-29T05:22:03.588Z,22.17
2022-11-29T05:24:45.927Z,22.75
2022-11-29T05:27:24.187Z,23.17
2022-11-29T05:32:57.869Z,25.23
2022-11-29T05:35:49.156Z,25.35
2022-11-29T05:38:30.906Z,19.58
2022-11-29T05:41:23.084Z,25.50
2022-11-29T05:43:52.471Z,24.35
2022-11-29T05:46:29.388Z,24.23
2022-11-29T05:49:05.198Z,23.92
2022-11-29T05:51:44.960Z,24.77
2022-11-29T05:54:46.493Z,24.50
2022-11-29T05:57:26.900Z,28.42
2022-11-29T05:59:55.640Z,24.52
2022-11-29T06:02:32.794Z,33.10
2022-11-29T06:05:18.422Z,29.17
2022-11-29T06:08:12.351Z,28.48
2022-11-29T06:10:44.067Z,31.38
2022-11-29T06:13:33.822Z,29.20
2022-11-29T06:16:07.807Z,26.55
2022-11-29T06:18:46.557Z,29.48
2022-11-29T06:21:39.003Z,28.77
2022-11-29T06:24:27.746Z,22.85
2022-11-29T06:27:19.489Z,23.23
2022-11-29T06:30:07.493Z,22.27
2022-11-29T06:32:42.192Z,22.88
2022-11-29T06:35:34.439Z,24.83
2022-11-29T06:38:20.247Z,27.02
2022-11-29T06:40:47.220Z,25.70
2022-11-29T06:43:14.415Z,33.10
2022-11-29T06:45:51.183Z,26.05
2022-11-29T06:48:24.492Z,25.58
2022-11-29T06:51:24.837Z,26.35
2022-11-29T06:54:06.950Z,26.15
2022-11-29T06:56:41.014Z,32.05
2022-11-29T06:59:13.783Z,24.02
2022-11-29T07:02:01.485Z,27.90
2022-11-29T07:04:31.007Z,27.50
2022-11-29T07:06:58.100Z,30.10
2022-11-29T07:09:33.902Z,28.42
2022-11-29T07:12:00.795Z,26.95
2022-11-29T07:14:27.815Z,27.48
2022-11-29T07:17:30.860Z,25.65
2022-11-29T07:20:12.423Z,25.77
2022-11-29T07:22:44.857Z,23.77
2022-11-29T07:25:28.805Z,26.50
2022-11-29T07:28:14.829Z,29.27
2022-11-29T07:31:04.848Z,28.42
2022-11-29T07:33:41.940Z,24.13
2022-11-29T07:36:18.210Z,21.65
2022-11-29T07:39:04.237Z,26.00
2022-11-29T07:41:43.629Z,23.25
2022-11-29T07:44:19.812Z,31.98
2022-11-29T07:46:46.617Z,29.08
2022-11-29T07:49:13.479Z,25.88
2022-11-29T07:51:40.229Z,28.17
2022-11-29T07:54:07.084Z,36.35
2022-11-29T07:56:33.751Z,39.55
2022-11-29T07:59:00.516Z,23.73
2022-11-29T08:01:27.393Z,39.70
2022-11-29T08:03:54.158Z,25.52
2022-11-29T08:06:25.579Z,33.33
2022-11-29T08:08:52.423Z,38.72
2022-11-29T08:11:19.099Z,36.95
2022-11-29T08:13:45.760Z,39.35
2022-11-29T08:16:17.518Z,43.90
2022-11-29T08:18:44.713Z,40.97
2022-11-29T08:21:11.439Z,35.22
2022-11-29T08:23:38.118Z,32.42
2022-11-29T08:26:04.849Z,33.78
2022-11-29T08:28:31.507Z,30.20
2022-11-29T08:31:09.254Z,31.17
2022-11-29T08:33:38.460Z,30.40
2022-11-29T08:36:10.943Z,20.05
2022-11-29T08:38:37.659Z,12.63
2022-11-29T08:41:05.862Z,9.15
2022-11-29T08:43:33.296Z,9.45
2022-11-29T08:46:00.113Z,12.25
2022-11-29T08:48:27.157Z,17.48
2022-11-29T08:50:55.342Z,15.23
2022-11-29T08:53:41.340Z,19.02
2022-11-29T08:56:53.355Z,13.70
2022-11-29T08:59:00.118Z,12.07
2022-11-29T09:01:26.816Z,11.25
2022-11-29T09:03:59.432Z,40.00
2022-11-29T09:06:28.179Z,34.17
2022-11-29T09:08:58.879Z,26.73
2022-11-29T09:11:27.566Z,18.08
2022-11-29T09:14:00.317Z,19.75
2022-11-29T09:16:29.772Z,12.98
2022-11-29T09:18:57.419Z,11.73
2022-11-29T09:21:26.392Z,15.07
2022-11-29T09:23:58.687Z,12.15
2022-11-29T09:26:29.130Z,8.77
2022-11-29T09:28:58.175Z,7.63
2022-11-29T09:31:25.036Z,9.63
2022-11-29T09:33:51.840Z,11.38
2022-11-29T09:36:21.574Z,7.82
2022-11-29T09:38:51.796Z,8.95
2022-11-29T09:41:36.449Z,9.15
2022-11-29T09:44:12.090Z,9.23
2022-11-29T09:47:23.267Z,8.43
2022-11-29T09:50:01.965Z,7.88
2022-11-29T09:52:46.814Z,8.10
2022-11-29T09:55:35.347Z,8.77
2022-11-29T10:00:35.297Z,7.28
2022-11-29T10:03:11.378Z,8.32
2022-11-29T10:05:44.109Z,6.15
2022-11-29T10:08:48.069Z,6.75
2022-11-29T10:11:21.833Z,8.70
2022-11-29T10:14:00.570Z,4.97
2022-11-29T10:16:42.101Z,6.68
2022-11-29T10:19:21.667Z,9.50
2022-11-29T10:22:03.717Z,8.57
2022-11-29T10:24:32.447Z,5.78
2022-11-29T10:26:59.517Z,7.28
2022-11-29T10:29:26.440Z,5.40
2022-11-29T10:31:56.577Z,5.40
2022-11-29T10:34:26.052Z,6.68
2022-11-29T10:36:59.551Z,11.80
2022-11-29T10:39:30.912Z,10.02
2022-11-29T10:42:02.409Z,10.75
2022-11-29T10:44:31.658Z,16.20
2022-11-29T10:47:03.556Z,9.55
2022-11-29T10:49:36.088Z,8.15
2022-11-29T10:52:02.881Z,9.07
2022-11-29T10:54:42.228Z,8.77
2022-11-29T10:57:15.424Z,9.70
2022-11-29T10:59:57.517Z,8.40
2022-11-29T11:02:24.530Z,10.77
2022-11-29T11:04:51.272Z,8.07
2022-11-29T11:07:35.512Z,8.20
2022-11-29T11:10:05.612Z,6.38
2022-11-29T11:12:34.492Z,7.03
2022-11-29T11:15:28.747Z,13.85
2022-11-29T11:18:00.685Z,12.00
2022-11-29T11:20:29.741Z,9.77
2022-11-29T11:23:03.711Z,9.80
2022-11-29T11:25:35.190Z,6.38
2022-11-29T11:28:23.068Z,6.43
2022-11-29T11:31:02.605Z,5.43
2022-11-29T11:33:32.713Z,8.07
2022-11-29T11:36:08.734Z,6.30
2022-11-29T11:38:56.309Z,6.15
2022-11-29T11:41:22.980Z,6.40
2022-11-29T11:43:57.154Z,5.35
2022-11-29T11:46:44.337Z,8.80
2022-11-29T11:49:24.977Z,6.22
2022-11-29T11:51:51.924Z,7.32
2022-11-29T11:54:18.816Z,8.75
2022-11-29T11:56:45.625Z,9.30
2022-11-29T11:59:20.530Z,6.35
2022-11-29T12:01:47.500Z,3.85
2022-11-29T12:04:21.977Z,4.78
2022-11-29T12:06:57.122Z,6.57
2022-11-29T12:10:11.444Z,6.28
2022-11-29T12:12:42.078Z,6.25
2022-11-29T12:15:18.396Z,4.90
2022-11-29T12:17:52.858Z,7.35
2022-11-29T12:20:31.231Z,7.50
2022-11-29T12:23:06.784Z,5.60
2022-11-29T12:25:50.613Z,4.75
2022-11-29T12:28:20.838Z,6.00
2022-11-29T12:30:57.765Z,6.30
2022-11-29T12:33:27.541Z,4.70
2022-11-29T12:36:24.680Z,7.05
2022-11-29T12:39:25.531Z,11.35
2022-11-29T12:42:21.631Z,9.93
2022-11-29T12:45:17.426Z,9.05
2022-11-29T12:48:05.844Z,6.38
2022-11-29T12:50:39.010Z,6.05
2022-11-29T12:53:33.302Z,9.38
2022-11-29T12:56:11.070Z,5.20
2022-11-29T12:58:41.346Z,9.82
2022-11-29T13:01:21.192Z,8.13
2022-11-29T13:04:13.226Z,7.45
2022-11-29T13:06:45.789Z,21.70
2022-11-29T13:09:43.547Z,15.27
2022-11-29T13:12:18.477Z,8.73
2022-11-29T13:15:08.842Z,14.48
2022-11-29T13:17:54.386Z,14.23
2022-11-29T13:21:00.595Z,11.35
2022-11-29T13:24:07.295Z,13.40
2022-11-29T13:26:26.985Z,13.30
2022-11-29T13:28:54.460Z,8.20
2022-11-29T13:31:23.398Z,7.90
2022-11-29T13:33:50.104Z,8.88
2022-11-29T13:36:36.256Z,11.05
2022-11-29T13:39:30.166Z,5.22
2022-11-29T13:42:12.082Z,7.28
2022-11-29T13:44:44.381Z,7.75
2022-11-29T13:47:14.407Z,9.95
2022-11-29T13:49:53.219Z,9.18
2022-11-29T13:52:44.988Z,9.75
2022-11-29T13:55:11.697Z,11.05
2022-11-29T13:58:21.984Z,10.35
2022-11-29T14:00:52.187Z,12.52
2022-11-29T14:03:21.861Z,8.85
2022-11-29T14:06:10.016Z,13.48
2022-11-29T14:09:17.103Z,8.90
2022-11-29T14:11:43.437Z,10.32
2022-11-29T14:14:27.554Z,9.75
2022-11-29T14:17:03.065Z,10.70
2022-11-29T14:19:35.555Z,6.95
2022-11-29T14:22:02.222Z,8.85
2022-11-29T14:24:37.924Z,10.98
2022-11-29T14:27:10.287Z,9.63
2022-11-29T14:29:49.484Z,11.63
2022-11-29T14:32:40.335Z,9.90
2022-11-29T14:35:11.253Z,11.18
2022-11-29T14:38:02.917Z,8.93
2022-11-29T14:40:41.795Z,19.83
2022-11-29T14:43:35.431Z,12.43
2022-11-29T14:46:09.267Z,15.95
2022-11-29T14:48:36.858Z,19.58
2022-11-29T14:51:24.693Z,21.02
2022-11-29T14:54:07.870Z,22.38
2022-11-29T14:56:38.751Z,22.85
2022-11-29T14:59:43.322Z,24.23
2022-11-29T15:02:27.133Z,18.80
2022-11-29T15:04:56.939Z,19.02
2022-11-29T15:07:29.311Z,19.52
2022-11-29T15:10:04.841Z,15.38
2022-11-29T15:12:36.613Z,17.73
2022-11-29T15:15:27.535Z,21.77
2022-11-29T15:18:15.151Z,15.43
2022-11-29T15:20:51.332Z,19.17
2022-11-29T15:23:19.133Z,25.35
2022-11-29T15:25:51.190Z,12.95
2022-11-29T15:28:23.783Z,15.65
2022-11-29T15:31:05.103Z,21.45
2022-11-29T15:33:34.359Z,17.52
2022-11-29T15:36:11.188Z,17.05
2022-11-29T15:38:42.172Z,17.70
2022-11-29T15:41:18.937Z,15.52
2022-11-29T15:43:50.442Z,14.40
2022-11-29T15:46:24.608Z,16.45
2022-11-29T15:48:51.305Z,18.52
2022-11-29T15:51:33.989Z,16.10
2022-11-29T15:54:19.323Z,14.18
2022-11-29T15:57:00.449Z,14.70
2022-11-29T15:59:51.512Z,15.35
2022-11-29T16:02:25.628Z,13.68
2022-11-29T16:04:56.870Z,15.02
2022-11-29T16:07:25.836Z,18.58
2022-11-29T16:09:58.184Z,15.48
2022-11-29T16:12:26.316Z,16.55
2022-11-29T16:14:58.321Z,13.57
2022-11-29T16:17:33.754Z,14.60
2022-11-29T16:20:16.587Z,17.85
2022-11-29T16:22:43.422Z,17.75
2022-11-29T16:25:18.974Z,13.68
2022-11-29T16:27:46.237Z,17.73
2022-11-29T16:30:25.597Z,16.38
2022-11-29T16:32:59.772Z,15.48
2022-11-29T16:35:29.234Z,17.40
2022-11-29T16:37:56.525Z,15.65
2022-11-29T16:43:04.041Z,13.77
2022-11-29T16:45:39.502Z,15.95
2022-11-29T16:48:29.861Z,15.73
2022-11-29T16:51:40.064Z,20.60
2022-11-29T16:54:27.786Z,14.27
2022-11-29T16:56:56.303Z,13.10
2022-11-29T16:59:28.057Z,19.65
2022-11-29T17:01:56.672Z,12.70
2022-11-29T17:04:24.666Z,13.80
2022-11-29T17:06:54.016Z,22.35
2022-11-29T17:09:30.327Z,12.82
2022-11-29T17:12:00.922Z,12.18
2022-11-29T17:14:31.636Z,14.40
2022-11-29T17:17:00.748Z,16.48
2022-11-29T17:19:28.888Z,21.95
2022-11-29T17:21:55.621Z,20.23
2022-11-29T17:24:24.250Z,25.02
2022-11-29T17:26:51.290Z,18.88
2022-11-29T17:29:18.439Z,30.60
2022-11-29T17:31:46.262Z,20.80
2022-11-29T17:34:13.351Z,18.92
2022-11-29T17:36:40.480Z,22.52
2022-11-29T17:39:07.716Z,32.60
2022-11-29T17:41:34.820Z,31.08
2022-11-29T17:44:01.807Z,31.58
2022-11-29T17:46:34.540Z,27.02
2022-11-29T17:49:06.248Z,36.83
2022-11-29T17:54:22.016Z,29.93
2022-11-29T17:56:49.365Z,39.38
2022-11-29T18:01:42.726Z,41.15
2022-11-29T18:04:09.593Z,34.78
2022-11-29T18:06:39.319Z,40.50
2022-11-29T18:09:08.302Z,36.60
2022-11-29T18:11:48.673Z,43.83
2022-11-29T18:14:19.042Z,46.00
2022-11-29T18:16:45.983Z,41.72
2022-11-29T18:19:15.591Z,47.85
2022-11-29T18:21:42.703Z,47.15
2022-11-29T18:24:10.338Z,48.58
2022-11-29T18:26:38.045Z,46.67
2022-11-29T18:29:06.197Z,46.92
2022-11-29T18:31:38.054Z,41.95
2022-11-29T18:34:07.085Z,41.13
2022-11-29T18:36:37.341Z,40.35
2022-11-29T18:39:08.635Z,34.55
2022-11-29T18:41:36.362Z,37.15
2022-11-29T18:44:09.351Z,39.72
2022-11-29T18:46:37.988Z,42.90
2022-11-29T18:49:10.047Z,51.83
2022-11-29T18:51:41.043Z,41.95
2022-11-29T18:54:10.625Z,44.67
2022-11-29T18:56:38.332Z,40.28
2022-11-29T18:59:10.066Z,45.47
2022-11-29T19:01:41.031Z,49.55
2022-11-29T19:04:11.284Z,44.55
2022-11-29T19:06:40.007Z,50.15
2022-11-29T19:09:19.141Z,46.17
2022-11-29T19:11:45.887Z,54.58
2022-11-29T19:14:13.271Z,55.92
2022-11-29T19:16:49.850Z,37.22
2022-11-29T19:19:18.869Z,37.47
2022-11-29T19:21:45.628Z,34.50
2022-11-29T19:24:14.694Z,33.42
2022-11-29T19:26:44.392Z,34.38
2022-11-29T19:29:12.392Z,36.03
2022-11-29T19:31:39.369Z,37.53
2022-11-29T19:34:06.849Z,32.95
2022-11-29T19:39:01.475Z,41.63
2022-11-29T19:41:31.501Z,33.83
2022-11-29T19:44:00.740Z,26.92
2022-11-29T19:46:30.929Z,33.67
2022-11-29T19:48:59.228Z,30.52
2022-11-29T19:51:27.865Z,46.90
2022-11-29T19:53:56.918Z,30.17
2022-11-29T19:56:24.522Z,26.30
2022-11-29T19:58:51.858Z,27.58
2022-11-29T20:06:14.511Z,31.02
2022-11-29T20:08:42.389Z,36.58
2022-11-29T20:11:11.270Z,28.23
2022-11-29T20:13:39.408Z,34.05
2022-11-29T20:16:09.755Z,49.78
2022-11-29T20:18:39.009Z,52.78
2022-11-29T20:21:07.644Z,55.63
2022-11-29T20:23:35.087Z,52.95
2022-11-29T20:26:01.941Z,56.28
2022-11-29T20:28:28.916Z,61.70
2022-11-29T20:30:56.645Z,55.30
2022-11-29T20:33:25.442Z,56.95
2022-11-29T20:36:17.725Z,57.17
2022-11-29T20:38:55.149Z,58.58
2022-11-29T20:41:40.315Z,54.33
2022-11-29T20:44:12.952Z,57.60
2022-11-29T20:46:39.816Z,57.90
2022-11-29T20:49:07.011Z,58.42
2022-11-29T20:51:57.024Z,63.88
2022-11-29T20:54:23.705Z,54.28
2022-11-29T20:56:50.396Z,54.83
2022-11-29T20:59:17.089Z,58.30
2022-11-29T21:01:43.787Z,56.95
2022-11-29T21:04:10.476Z,56.47
2022-11-29T21:06:38.421Z,57.58
2022-11-29T21:09:06.057Z,60.78
2022-11-29T21:11:35.968Z,56.22
2022-11-29T21:14:04.429Z,60.42
2022-11-29T21:16:32.234Z,61.55
2022-11-29T21:19:01.494Z,59.25
2022-11-29T21:21:36.541Z,57.33
2022-11-29T21:24:24.957Z,59.40
2022-11-29T21:26:51.856Z,63.95
2022-11-29T21:29:23.147Z,72.25
2022-11-29T21:31:53.038Z,61.05
2022-11-29T21:34:20.836Z,65.03
2022-11-29T21:36:58.152Z,69.93
2022-11-29T21:39:33.399Z,64.82
2022-11-29T21:42:00.462Z,68.70
2022-11-29T21:44:27.160Z,63.92
2022-11-29T21:46:53.876Z,61.78
2022-11-29T21:49:20.710Z,68.07
2022-11-29T21:51:47.409Z,70.28
2022-11-29T21:54:14.126Z,63.78
2022-11-29T21:56:40.923Z,65.53
2022-11-29T21:59:07.790Z,41.35
2022-11-29T22:01:34.685Z,66.03
2022-11-29T22:04:01.479Z,65.65
2022-11-29T22:06:29.273Z,68.47
2022-11-29T22:08:56.330Z,66.90
2022-11-29T22:11:34.137Z,66.72
2022-11-29T22:14:27.053Z,72.28
2022-11-29T22:16:56.026Z,76.15
2022-11-29T22:19:39.392Z,65.72
2022-11-29T22:22:08.964Z,70.88
2022-11-29T22:24:36.799Z,74.30
2022-11-29T22:27:04.259Z,72.63
2022-11-29T22:31:59.208Z,73.85
2022-11-29T22:34:39.829Z,72.95
2022-11-29T22:37:06.494Z,72.82
2022-11-29T22:39:33.365Z,75.50
2022-11-29T22:42:00.070Z,73.60
2022-11-29T22:44:26.911Z,72.30
2022-11-29T22:46:53.665Z,68.82
2022-11-29T22:49:20.434Z,72.53
2022-11-29T22:51:47.172Z,88.47
2022-11-29T22:54:17.324Z,72.75
2022-11-29T22:56:44.972Z,67.63
2022-11-29T22:59:11.696Z,73.00
2022-11-29T23:01:40.077Z,80.18
2022-11-29T23:04:10.943Z,74.35
2022-11-29T23:06:43.404Z,69.88
2022-11-29T23:09:16.330Z,71.90
2022-11-29T23:11:45.559Z,70.25
2022-11-29T23:14:12.691Z,73.22
2022-11-29T23:16:39.643Z,67.95
2022-11-29T23:19:06.624Z,68.43
2022-11-29T23:21:36.340Z,71.28
2022-11-29T23:24:03.517Z,65.30
2022-11-29T23:26:40.002Z,68.00
2022-11-29T23:29:08.954Z,61.25
2022-11-29T23:31:35.909Z,74.70
2022-11-29T23:34:03.063Z,68.80
2022-11-29T23:36:29.763Z,75.57
2022-11-29T23:38:56.449Z,78.32
2022-11-29T23:41:23.261Z,77.80
2022-11-29T23:43:50.328Z,68.93
2022-11-29T23:46:19.712Z,67.57
2022-11-29T23:48:46.799Z,68.60
2022-11-29T23:51:14.767Z,70.53
2022-11-29T23:53:41.946Z,70.78
2022-11-29T23:56:16.366Z,63.67
2022-11-29T23:58:44.024Z,70.07
